Hutag, Mongolia
Current Conditions -  °F | °C
As of 5:00 AM on Friday 21 Nov 2014 (Local Time) from UIII Reporting Station
Few Clouds Few Clouds  
Wind Chill: -15°   Ceiling: Unl
Heat Index: -2°   Visibility: 6mi
Dew Point: -6°   Wind: 7mph
Humidity: 85%   Direction: 100°E
Pressure: 30.03"   Gusts: NA
Location:  49.39°N, 102.7°E
Report Text: UIII 202100Z 10003MPS 9999 FEW002 M19/M21 Q1017 NOSIG RMKQBB060 QFE720/0961 12810360
Loading
Personal Weather Stations






























Interactive Weather Map New forecast layout! Learn more

10-Day Weather Forecast

Advertisements
Track Severe Weather on mobile